Anchorage/Elmendorf AFB, Alaska
Current Conditions -  °F | °C
As of 4:58 PM on Sunday 23 Nov 2014 (Local Time) from PAED Reporting Station
Broken Clouds Broken Clouds  
Wind Chill: 26°   Ceiling: 8000
Heat Index: 26°   Visibility: 10mi
Dew Point: 24°   Wind: 0mph
Humidity: 94%   Direction: NA
Pressure: 29.49"   Gusts: NA
Location:  61.25°N, 149.79°W
Report Text: PAED 240158Z AUTO 00000KT 10SM BKN080 BKN095 M03/M04 A2949 RMK AO2 SLP984 T10331042 $
Loading
Personal Weather Stations






























Interactive Weather Map New forecast layout! Learn more

10-Day Weather Forecast

Advertisements
Track Severe Weather on mobile